Buckley Air Force Base Aurora US
ICAO: KBKF
IATA: BFK
Category: Medium
Scheduled Services: No

Elevation: 5662 ft
TransAlt. 18000 ft.

Airport Communications:
DENVER APP/DEP:128.45
ATIS:119.675
GND/CLNC DEL:121.6
PMSV METRO:22.845
PTD:37.22
TWR:121

KBKF Zoom In..

If you have problems with the map follow the link
https://www.worldairports.se/pages/airport.php?
ICAO=KBKF

Runways:

(A) RW 14 length 11006 ft width 150 ft
---- / hdg 140

(B) RW 32 length 11006 ft width 150 ft
ILS 109.70 / hdg 320

Location; KBKF
Day. 13 / Time. 20.58 Zulu
* Altimeter: 29.92
* Temperature: 07° c. 44.6°f.
* Wind from: 280° Speed 26 kn with Gusts up to 34 kn.
Dewpoint: -11° c.
Visibility: 10 Statute Miles.
Clouds: Scattered 7000 ft.
Clouds: Broken 2000 ft.

KBKF 132058Z 28026G34KT 10SM SCT070 BKN200 07/M11 A2992 RMK AO2A PK WND 28035/08 SLP123 T00661111 55009


Wind From 280°
Speed 26 kn.

 
 
jpsmedia worldairports.se 2019   terms of use